createdAt,value
2017-02-11T00:00:04.229Z,94.1
2017-02-11T00:01:18.590Z,93.23
2017-02-11T00:02:33.015Z,93.71
2017-02-11T00:03:47.378Z,94.2
2017-02-11T00:05:01.754Z,94.15
2017-02-11T00:06:15.486Z,94.15
2017-02-11T00:07:29.195Z,94.24
2017-02-11T00:08:43.564Z,93.95
2017-02-11T00:09:57.938Z,93.9
2017-02-11T00:11:12.275Z,93.62
2017-02-11T00:12:26.003Z,93.52
2017-02-11T00:13:40.327Z,93.28
2017-02-11T00:14:54.756Z,93.52
2017-02-11T00:16:09.151Z,93.62
2017-02-11T00:17:23.566Z,92.46
2017-02-11T00:18:37.904Z,93.32
2017-02-11T00:19:51.626Z,93.57
2017-02-11T00:21:05.948Z,93.47
2017-02-11T00:22:20.330Z,93.47
2017-02-11T00:23:34.702Z,93.08
2017-02-11T00:24:49.031Z,93.95
2017-02-11T00:26:03.369Z,94.15
2017-02-11T00:27:17.774Z,93.76
2017-02-11T00:28:32.160Z,94.15
2017-02-11T00:29:46.533Z,93.95
2017-02-11T00:31:00.263Z,93.76
2017-02-11T00:32:14.694Z,93.66
2017-02-11T00:33:29.073Z,94.15
2017-02-11T00:34:43.430Z,94.15
2017-02-11T00:35:57.199Z,94.15
2017-02-11T00:37:11.548Z,94.15
2017-02-11T00:38:25.882Z,94.24
2017-02-11T00:39:40.244Z,94.43
2017-02-11T00:40:53.951Z,94.82
2017-02-11T00:42:08.335Z,94.43
2017-02-11T00:43:22.700Z,94.63
2017-02-11T00:44:36.409Z,94.24
2017-02-11T00:45:50.303Z,94.43
2017-02-11T00:47:04.637Z,94.73
2017-02-11T00:48:18.356Z,94.73
2017-02-11T00:49:32.740Z,94.43
2017-02-11T00:50:46.457Z,95.69
2017-02-11T00:52:00.847Z,95.11
2017-02-11T00:53:14.565Z,95.21
2017-02-11T00:54:28.926Z,95.11
2017-02-11T00:55:43.302Z,95.21
2017-02-11T00:56:57.674Z,95.35
2017-02-11T00:58:12.043Z,95.16
2017-02-11T00:59:26.393Z,95.5
2017-02-11T01:00:40.721Z,95.69
2017-02-11T01:01:55.131Z,95.31
2017-02-11T01:03:08.848Z,95.25
2017-02-11T01:04:23.193Z,95.06
2017-02-11T01:05:37.586Z,95.45
2017-02-11T01:06:51.996Z,95.35
2017-02-11T01:08:06.337Z,95.45
2017-02-11T01:09:20.056Z,95.16
2017-02-11T01:10:34.400Z,95.74
2017-02-11T01:11:48.755Z,95.45
2017-02-11T01:13:02.517Z,95.54
2017-02-11T01:14:16.234Z,96.03
2017-02-11T01:15:30.621Z,96.31
2017-02-11T01:16:45.053Z,95.93
2017-02-11T01:17:58.775Z,96.03
2017-02-11T01:19:12.505Z,95.93
2017-02-11T01:20:26.889Z,95.93
2017-02-11T01:21:41.276Z,96.51
2017-02-11T01:22:55.601Z,96.22
2017-02-11T01:24:10.009Z,95.93
2017-02-11T01:25:23.110Z,96.03
2017-02-11T01:26:37.471Z,96.8
2017-02-11T01:27:51.833Z,96.89
2017-02-11T01:29:06.231Z,96.89
2017-02-11T01:30:19.981Z,96.8
2017-02-11T01:31:34.337Z,96.41
2017-02-11T01:32:48.708Z,96.8
2017-02-11T01:34:03.086Z,96.61
2017-02-11T01:35:16.821Z,96.89
2017-02-11T01:36:31.174Z,97.19
2017-02-11T01:37:45.545Z,97.19
2017-02-11T01:38:59.904Z,97.19
2017-02-11T01:40:13.644Z,96.8
2017-02-11T01:41:28.030Z,97.19
2017-02-11T01:42:42.368Z,96.22
2017-02-11T01:43:56.714Z,96.89
2017-02-11T01:45:10.436Z,97.19
2017-02-11T01:46:23.558Z,96.41
2017-02-11T01:47:38.738Z,96.12
2017-02-11T01:48:53.146Z,96.12
2017-02-11T01:50:06.916Z,95.93
2017-02-11T01:51:20.606Z,96.51
2017-02-11T01:52:34.944Z,95.83
2017-02-11T01:53:49.268Z,95.93
2017-02-11T01:55:03.629Z,96.22
2017-02-11T01:56:17.351Z,96.22
2017-02-11T01:57:31.738Z,96.03
2017-02-11T01:58:45.469Z,95.93
2017-02-11T01:59:59.829Z,95.93
2017-02-11T02:01:12.917Z,96.12
2017-02-11T02:02:27.261Z,95.83
2017-02-11T02:03:41.618Z,96.03
2017-02-11T02:04:56.000Z,96.31
2017-02-11T02:06:09.677Z,96.31
2017-02-11T02:07:24.125Z,96.31
2017-02-11T02:08:38.520Z,96.51
2017-02-11T02:09:52.869Z,96.22
2017-02-11T02:11:06.602Z,96.7
2017-02-11T02:13:08.407Z,96.51
2017-02-11T02:14:22.099Z,96.7
2017-02-11T02:15:36.467Z,96.89
2017-02-11T02:16:50.839Z,96.12
2017-02-11T02:18:04.839Z,95.93
2017-02-11T02:19:17.913Z,96.99
2017-02-11T02:21:03.205Z,96.89
2017-02-11T02:22:16.887Z,96.99
2017-02-11T02:23:31.269Z,96.99
2017-02-11T02:24:45.003Z,97.57
2017-02-11T02:25:58.710Z,97.28
2017-02-11T02:27:13.096Z,97.19
2017-02-11T02:28:26.816Z,97.57
2017-02-11T02:29:41.221Z,96.89
2017-02-11T02:30:55.591Z,96.8
2017-02-11T02:32:09.958Z,97.38
2017-02-11T02:33:24.304Z,97.38
2017-02-11T02:34:38.698Z,96.61
2017-02-11T02:35:53.056Z,96.8
2017-02-11T02:37:07.412Z,97.57
2017-02-11T02:38:21.160Z,96.7
2017-02-11T02:39:35.573Z,96.99
2017-02-11T02:40:49.263Z,96.12
2017-02-11T02:42:03.635Z,96.51
2017-02-11T02:43:16.734Z,96.99
2017-02-11T02:44:31.120Z,96.89
2017-02-11T02:45:45.512Z,96.8
2017-02-11T02:46:59.243Z,95.35
2017-02-11T02:48:13.596Z,95.25
2017-02-11T02:49:27.361Z,95.25
2017-02-11T02:50:41.736Z,94.38
2017-02-11T02:51:56.145Z,94.38
2017-02-11T02:53:10.521Z,94.48
2017-02-11T02:54:24.890Z,94.77
2017-02-11T02:55:39.235Z,94.2
2017-02-11T02:56:53.602Z,94.77
2017-02-11T02:58:07.297Z,93.9
2017-02-11T02:59:21.005Z,93.32
2017-02-11T03:00:35.400Z,93.71
2017-02-11T03:01:49.736Z,93.32
2017-02-11T03:03:03.459Z,93.42
2017-02-11T03:04:17.819Z,92.84
2017-02-11T03:05:32.210Z,93.52
2017-02-11T03:06:46.575Z,93.32
2017-02-11T03:08:00.934Z,93.52
2017-02-11T03:09:15.296Z,94.05
2017-02-11T03:10:29.672Z,94.15
2017-02-11T03:11:44.053Z,93.76
2017-02-11T03:12:58.432Z,94.53
2017-02-11T03:14:12.818Z,94.34
2017-02-11T03:15:27.188Z,93.95
2017-02-11T03:16:41.546Z,94.53
2017-02-11T03:17:55.919Z,94.73
2017-02-11T03:19:09.649Z,94.15
2017-02-11T03:20:23.330Z,93.95
2017-02-11T03:21:37.745Z,93.85
2017-02-11T03:22:52.114Z,93.85
2017-02-11T03:24:05.818Z,94.63
2017-02-11T03:25:20.171Z,94.34
2017-02-11T03:26:34.540Z,94.43
2017-02-11T03:27:48.912Z,94.1
2017-02-11T03:29:03.258Z,94.05
2017-02-11T03:30:17.581Z,93.85
2017-02-11T03:31:31.945Z,93.9
2017-02-11T03:32:46.350Z,93.8
2017-02-11T03:34:00.719Z,93.8
2017-02-11T03:35:15.081Z,93.9
2017-02-11T03:36:29.460Z,94.29
2017-02-11T03:37:43.822Z,94.1
2017-02-11T03:38:57.589Z,94.1
2017-02-11T03:40:11.943Z,94.1
2017-02-11T03:41:25.645Z,93.8
2017-02-11T03:42:40.048Z,94.2
2017-02-11T03:43:54.403Z,93.9
2017-02-11T03:45:08.794Z,93.32
2017-02-11T03:46:23.161Z,93.52
2017-02-11T03:47:37.544Z,93.62
2017-02-11T03:48:51.948Z,93.52
2017-02-11T03:50:05.669Z,93.13
2017-02-11T03:51:20.052Z,94.1
2017-02-11T03:52:34.404Z,93.9
2017-02-11T03:53:48.799Z,93.23
2017-02-11T03:55:03.169Z,94.1
2017-02-11T03:56:17.560Z,94.2
2017-02-11T03:57:31.953Z,93.13
2017-02-11T03:58:46.314Z,94.2
2017-02-11T04:00:07.666Z,94
2017-02-11T04:01:22.035Z,93.32
2017-02-11T04:02:36.405Z,94.29
2017-02-11T04:03:50.779Z,94.1
2017-02-11T04:05:05.179Z,94.1
2017-02-11T04:06:19.558Z,94.1
2017-02-11T04:07:34.045Z,94.68
2017-02-11T04:08:48.516Z,94.58
2017-02-11T04:10:02.873Z,94.29
2017-02-11T04:11:16.598Z,94.38
2017-02-11T04:12:30.995Z,94.2
2017-02-11T04:13:45.414Z,94.48
2017-02-11T04:14:59.792Z,94.38
2017-02-11T04:16:14.194Z,94.48
2017-02-11T04:17:28.582Z,94.29
2017-02-11T04:18:42.968Z,94.38
2017-02-11T04:19:57.357Z,94.1
2017-02-11T04:21:11.090Z,94.58
2017-02-11T04:22:25.472Z,94.48
2017-02-11T04:23:39.873Z,94.68
2017-02-11T04:24:54.205Z,94.38
2017-02-11T04:26:08.611Z,94.58
2017-02-11T04:27:22.375Z,94.38
2017-02-11T04:28:36.743Z,94.58
2017-02-11T04:29:50.469Z,94.68
2017-02-11T04:31:31.679Z,94.77
2017-02-11T04:32:46.017Z,94.38
2017-02-11T04:34:00.384Z,94.68
2017-02-11T04:35:14.783Z,95.11
2017-02-11T04:36:29.154Z,95.5
2017-02-11T04:37:43.544Z,96.08
2017-02-11T04:38:57.887Z,96.17
2017-02-11T04:40:11.606Z,96.84
2017-02-11T04:41:25.965Z,97.09
2017-02-11T04:42:40.346Z,96.84
2017-02-11T04:43:54.726Z,96.61
2017-02-11T04:45:09.088Z,97.09
2017-02-11T04:46:23.456Z,96.7
2017-02-11T04:47:37.844Z,97.38
2017-02-11T04:48:52.179Z,97.09
2017-02-11T04:50:05.871Z,97.47
2017-02-11T04:51:20.245Z,97.09
2017-02-11T04:52:34.602Z,96.89
2017-02-11T04:53:48.956Z,97.09
2017-02-11T04:55:03.337Z,97.86
2017-02-11T04:56:17.025Z,97.14
2017-02-11T04:57:31.438Z,97.28
2017-02-11T04:58:45.783Z,97.47
2017-02-11T05:00:00.174Z,98.05
2017-02-11T05:01:14.552Z,96.89
2017-02-11T05:02:28.307Z,97.52
2017-02-11T05:03:42.661Z,97.09
2017-02-11T05:04:57.040Z,97.09
2017-02-11T05:06:10.772Z,97.42
2017-02-11T05:07:25.184Z,97.24
2017-02-11T05:08:39.563Z,96.84
2017-02-11T05:09:53.937Z,97.33
2017-02-11T05:11:08.320Z,96.84
2017-02-11T05:12:22.004Z,96.75
2017-02-11T05:13:36.318Z,96.17
2017-02-11T05:14:50.686Z,96.56
2017-02-11T05:16:05.022Z,96.36
2017-02-11T05:17:19.362Z,96.27
2017-02-11T05:18:33.713Z,95.88
2017-02-11T05:19:48.120Z,96.56
2017-02-11T05:21:02.511Z,96.17
2017-02-11T05:22:16.881Z,97.14
2017-02-11T05:23:31.270Z,97.04
2017-02-11T05:24:44.957Z,97.62
2017-02-11T05:25:59.363Z,97.42
2017-02-11T05:27:14.917Z,96.84
2017-02-11T05:28:29.259Z,96.66
2017-02-11T05:29:43.639Z,97.14
2017-02-11T05:30:57.975Z,97.14
2017-02-11T05:32:12.385Z,97.14
2017-02-11T05:33:26.115Z,96.94
2017-02-11T05:34:40.519Z,96.75
2017-02-11T05:35:54.881Z,97.14
2017-02-11T05:37:09.240Z,97.14
2017-02-11T05:38:23.588Z,97.42
2017-02-11T05:39:37.945Z,97.14
2017-02-11T05:40:52.284Z,96.94
2017-02-11T05:42:06.656Z,96.75
2017-02-11T05:43:20.364Z,96.66
2017-02-11T05:44:34.775Z,97.14
2017-02-11T05:45:49.164Z,97.14
2017-02-11T05:47:03.523Z,97.42
2017-02-11T05:48:17.876Z,96.84
2017-02-11T05:49:32.206Z,97.24
2017-02-11T05:50:46.552Z,96.94
2017-02-11T05:52:00.930Z,97.24
2017-02-11T05:53:15.282Z,98
2017-02-11T05:54:29.609Z,98.1
2017-02-11T05:55:43.998Z,97.81
2017-02-11T05:56:58.350Z,98.2
2017-02-11T05:58:12.718Z,98.15
2017-02-11T05:59:26.420Z,98.15
2017-02-11T06:00:40.792Z,98.34
2017-02-11T06:01:55.143Z,98.29
2017-02-11T06:03:08.887Z,98.39
2017-02-11T06:04:22.630Z,98.44
2017-02-11T06:05:37.030Z,98.63
2017-02-11T06:06:51.402Z,98.92
2017-02-11T06:08:05.764Z,98.82
2017-02-11T06:09:19.526Z,99.4
2017-02-11T06:10:33.927Z,99.11
2017-02-11T06:11:48.268Z,99.88
2017-02-11T06:13:02.628Z,99.6
2017-02-11T06:14:16.970Z,99.98
2017-02-11T06:15:31.309Z,99.6
2017-02-11T06:16:45.669Z,99.98
2017-02-11T06:18:00.003Z,99.69
2017-02-11T06:19:14.369Z,99.55
2017-02-11T06:20:28.740Z,99.79
2017-02-11T06:21:43.073Z,99.6
2017-02-11T06:22:57.445Z,99.69
2017-02-11T06:24:10.525Z,99.69
2017-02-11T06:25:24.903Z,99.69
2017-02-11T06:26:39.340Z,99.99
2017-02-11T06:27:53.724Z,99.99
2017-02-11T06:29:08.097Z,99.99
2017-02-11T06:30:22.449Z,99.99
2017-02-11T06:31:36.805Z,99.99
2017-02-11T06:32:51.176Z,99.99
2017-02-11T06:34:05.561Z,99.99
2017-02-11T06:35:19.281Z,99.99
2017-02-11T06:36:33.673Z,99.99
2017-02-11T06:37:48.005Z,99.99
2017-02-11T06:39:02.356Z,99.99
2017-02-11T06:40:16.053Z,99.99
2017-02-11T06:41:30.435Z,99.99
2017-02-11T06:42:44.812Z,99.99
2017-02-11T06:43:59.197Z,99.99
2017-02-11T06:45:13.573Z,99.99
2017-02-11T06:46:27.286Z,99.99
2017-02-11T06:47:41.657Z,99.99
2017-02-11T06:48:56.006Z,99.99
2017-02-11T06:50:10.390Z,99.99
2017-02-11T06:51:24.743Z,99.99
2017-02-11T06:52:39.100Z,99.99
2017-02-11T06:53:53.465Z,99.99
2017-02-11T06:55:07.797Z,99.99
2017-02-11T06:56:21.485Z,99.99
2017-02-11T06:57:35.820Z,99.99
2017-02-11T06:58:50.196Z,99.99
2017-02-11T07:00:04.586Z,99.99
2017-02-11T07:01:18.966Z,99.99
2017-02-11T07:02:33.327Z,99.99
2017-02-11T07:03:47.679Z,99.99
2017-02-11T07:05:02.079Z,99.99
2017-02-11T07:06:16.472Z,99.99
2017-02-11T07:07:30.822Z,99.99
2017-02-11T07:08:45.225Z,99.99
2017-02-11T07:09:59.615Z,99.99
2017-02-11T07:11:13.354Z,99.99
2017-02-11T07:12:27.755Z,99.99
2017-02-11T07:13:42.164Z,99.99
2017-02-11T07:14:56.538Z,99.99
2017-02-11T07:16:10.283Z,99.99
2017-02-11T07:17:23.996Z,99.99
2017-02-11T07:18:37.071Z,99.99
2017-02-11T07:19:51.483Z,99.99
2017-02-11T07:21:05.853Z,99.99
2017-02-11T07:22:20.213Z,99.99
2017-02-11T07:23:34.589Z,99.99
2017-02-11T07:24:48.944Z,99.99
2017-02-11T07:26:02.699Z,99.99
2017-02-11T07:27:16.426Z,99.99
2017-02-11T07:28:30.798Z,99.99
2017-02-11T07:29:45.149Z,99.99
2017-02-11T07:30:59.519Z,99.99
2017-02-11T07:32:13.876Z,99.99
2017-02-11T07:33:28.239Z,99.99
2017-02-11T07:34:42.626Z,99.99
2017-02-11T07:35:57.002Z,99.99
2017-02-11T07:37:11.352Z,99.99
2017-02-11T07:38:25.699Z,99.99
2017-02-11T07:39:40.089Z,99.99
2017-02-11T07:40:54.428Z,99.99
2017-02-11T07:42:08.768Z,99.99
2017-02-11T07:43:23.144Z,99.99
2017-02-11T07:44:37.498Z,99.99
2017-02-11T07:45:51.835Z,99.99
2017-02-11T07:47:06.194Z,99.99
2017-02-11T07:48:20.599Z,99.99
2017-02-11T07:49:34.941Z,99.99
2017-02-11T07:50:49.339Z,99.99
2017-02-11T07:52:03.127Z,99.99
2017-02-11T07:53:16.829Z,99.99
2017-02-11T07:54:31.188Z,99.99
2017-02-11T07:55:45.548Z,99.99
2017-02-11T07:56:59.283Z,99.99
2017-02-11T07:58:13.685Z,99.99
2017-02-11T07:59:27.400Z,99.99
2017-02-11T08:00:41.807Z,99.99
2017-02-11T08:01:56.202Z,99.99
2017-02-11T08:03:10.560Z,99.99
2017-02-11T08:04:24.926Z,99.99
2017-02-11T08:05:39.336Z,99.99
2017-02-11T08:06:53.677Z,99.99
2017-02-11T08:08:08.043Z,99.99
2017-02-11T08:09:21.086Z,99.99
2017-02-11T08:10:35.442Z,99.99
2017-02-11T08:11:49.791Z,99.99
2017-02-11T08:13:04.182Z,99.99
2017-02-11T08:14:17.920Z,99.99
2017-02-11T08:15:31.647Z,99.99
2017-02-11T08:16:45.996Z,99.99
2017-02-11T08:18:00.417Z,99.99
2017-02-11T08:19:14.163Z,99.99
2017-02-11T08:20:28.527Z,99.99
2017-02-11T08:21:42.893Z,99.99
2017-02-11T08:22:57.247Z,99.99
2017-02-11T08:24:11.068Z,99.99
2017-02-11T08:25:25.437Z,99.99
2017-02-11T08:26:39.803Z,99.99
2017-02-11T08:27:54.181Z,99.99
2017-02-11T08:29:08.521Z,99.99
2017-02-11T08:30:22.875Z,99.99
2017-02-11T08:31:37.244Z,99.99
2017-02-11T08:32:51.619Z,99.99
2017-02-11T08:34:06.042Z,99.99
2017-02-11T08:35:20.404Z,99.99
2017-02-11T08:36:34.784Z,99.99
2017-02-11T08:37:49.157Z,99.99
2017-02-11T08:39:03.522Z,99.99
2017-02-11T08:40:17.244Z,99.99
2017-02-11T08:41:31.599Z,99.99
2017-02-11T08:42:45.955Z,99.99
2017-02-11T08:44:00.323Z,99.99
2017-02-11T08:45:14.678Z,99.99
2017-02-11T08:46:29.110Z,99.99
2017-02-11T08:47:43.495Z,99.99
2017-02-11T08:48:57.866Z,99.99
2017-02-11T08:50:12.262Z,99.99
2017-02-11T08:51:26.009Z,99.99
2017-02-11T08:52:40.367Z,99.99
2017-02-11T08:53:54.077Z,99.99
2017-02-11T08:55:08.425Z,99.99
2017-02-11T08:56:22.812Z,99.99
2017-02-11T08:57:37.215Z,99.99
2017-02-11T08:58:51.603Z,99.99
2017-02-11T09:00:05.974Z,99.99
2017-02-11T09:01:20.347Z,99.99
2017-02-11T09:02:34.692Z,99.99
2017-02-11T09:03:49.076Z,99.99
2017-02-11T09:05:03.442Z,99.99
2017-02-11T09:06:17.802Z,99.99
2017-02-11T09:07:32.163Z,99.99
2017-02-11T09:08:46.499Z,99.99
2017-02-11T09:10:00.876Z,99.99
2017-02-11T09:11:15.257Z,99.99
2017-02-11T09:12:29.627Z,99.99
2017-02-11T09:13:43.947Z,99.99
2017-02-11T09:14:58.306Z,99.99
2017-02-11T09:16:12.029Z,99.99
2017-02-11T09:17:26.396Z,99.99
2017-02-11T09:18:40.791Z,99.99
2017-02-11T09:19:55.173Z,99.99
2017-02-11T09:21:09.529Z,99.99
2017-02-11T09:22:23.942Z,99.99
2017-02-11T09:23:38.302Z,99.99
2017-02-11T09:24:52.724Z,99.4
2017-02-11T09:26:07.100Z,98.34
2017-02-11T09:27:21.482Z,98.54
2017-02-11T09:28:35.857Z,98.49
2017-02-11T09:29:50.191Z,98.29
2017-02-11T09:31:04.548Z,98.2
2017-02-11T09:32:18.941Z,97.62
2017-02-11T09:33:33.308Z,97.33
2017-02-11T09:34:47.711Z,96.75
2017-02-11T09:36:01.448Z,96.08
2017-02-11T09:37:14.498Z,95.35
2017-02-11T09:38:28.220Z,95.06
2017-02-11T09:39:42.590Z,95.64
2017-02-11T09:40:56.944Z,94.38
2017-02-11T09:42:10.669Z,95.54
2017-02-11T09:43:25.042Z,95.06
2017-02-11T09:44:39.444Z,95.25
2017-02-11T09:45:53.815Z,96.03
2017-02-11T09:47:08.230Z,96.61
2017-02-11T09:48:22.579Z,95.35
2017-02-11T09:49:36.973Z,96.12
2017-02-11T09:50:51.354Z,96.51
2017-02-11T09:52:05.704Z,95.35
2017-02-11T09:53:19.402Z,94.58
2017-02-11T09:54:33.125Z,95.16
2017-02-11T09:55:46.859Z,93.71
2017-02-11T09:57:01.243Z,93.85
2017-02-11T09:58:15.640Z,93.18
2017-02-11T09:59:29.977Z,92.5
2017-02-11T10:01:02.259Z,90.91
2017-02-11T10:02:16.621Z,91.49
2017-02-11T10:03:30.998Z,90.61
2017-02-11T10:04:45.362Z,91
2017-02-11T10:05:59.753Z,92.5
2017-02-11T10:07:13.469Z,92.41
2017-02-11T10:08:27.818Z,91.39
2017-02-11T10:09:42.193Z,90.03
2017-02-11T10:10:56.594Z,89.01
2017-02-11T10:12:10.373Z,88.92
2017-02-11T10:13:24.764Z,88.53
2017-02-11T10:14:38.471Z,88.05
2017-02-11T10:15:52.845Z,87.85
2017-02-11T10:17:07.226Z,87.23
2017-02-11T10:18:21.590Z,87.23
2017-02-11T10:19:35.946Z,86.65
2017-02-11T10:20:50.305Z,86.45
2017-02-11T10:22:04.007Z,85.24
2017-02-11T10:23:17.094Z,85.42
2017-02-11T10:24:30.815Z,85.97
2017-02-11T10:25:44.532Z,86.45
2017-02-11T10:26:59.266Z,86.16
2017-02-11T10:28:13.624Z,85.77
2017-02-11T10:29:28.028Z,86.1
2017-02-11T10:30:42.387Z,85.1
2017-02-11T10:31:56.099Z,84.75
2017-02-11T10:33:10.494Z,83.34
2017-02-11T10:34:24.869Z,83.44
2017-02-11T10:35:38.622Z,81.73
2017-02-11T10:36:52.990Z,82.03
2017-02-11T10:38:06.719Z,81.7
2017-02-11T10:39:21.093Z,81.83
2017-02-11T10:40:35.489Z,81.35
2017-02-11T10:41:49.879Z,79.9
2017-02-11T10:43:03.644Z,80.77
2017-02-11T10:44:17.138Z,82.22
2017-02-11T10:45:29.654Z,82.95
2017-02-11T10:46:43.370Z,81.89
2017-02-11T10:47:57.116Z,81.7
2017-02-11T10:49:10.193Z,80.57
2017-02-11T10:50:23.239Z,80.09
2017-02-11T10:51:36.341Z,80.87
2017-02-11T10:52:50.000Z,81.05
2017-02-11T10:54:03.694Z,80.57
2017-02-11T10:55:16.173Z,80.28
2017-02-11T10:56:28.648Z,79.22
2017-02-11T10:57:42.323Z,79.32
2017-02-11T10:58:56.006Z,78.58
2017-02-11T11:00:09.096Z,77.16
2017-02-11T11:01:22.194Z,76.97
2017-02-11T11:02:35.888Z,76.19
2017-02-11T11:03:49.577Z,75.84
2017-02-11T11:05:03.253Z,75.55
2017-02-11T11:06:16.935Z,74.68
2017-02-11T11:07:30.630Z,74.23
2017-02-11T11:08:44.395Z,73.2
2017-02-11T11:09:58.066Z,72.33
2017-02-11T11:11:11.160Z,71.84
2017-02-11T11:12:24.855Z,72.23
2017-02-11T11:13:37.966Z,72.23
2017-02-11T11:14:51.643Z,72.71
2017-02-11T11:16:05.319Z,73.3
2017-02-11T11:17:19.065Z,71.94
2017-02-11T11:18:32.145Z,72.13
2017-02-11T11:19:45.858Z,72.17
2017-02-11T11:20:59.530Z,71.84
2017-02-11T11:22:13.233Z,72.81
2017-02-11T11:23:26.967Z,72.33
2017-02-11T11:24:40.662Z,70.97
2017-02-11T11:25:54.327Z,69.29
2017-02-11T11:27:08.000Z,67.86
2017-02-11T11:28:21.769Z,65.37
2017-02-11T11:29:35.422Z,63.58
2017-02-11T11:30:49.113Z,64.87
2017-02-11T11:32:02.807Z,64.36
2017-02-11T11:33:16.514Z,64.91
2017-02-11T11:34:29.612Z,64.91
2017-02-11T11:35:43.339Z,64.94
2017-02-11T11:36:57.036Z,64.94
2017-02-11T11:38:10.712Z,65.88
2017-02-11T11:39:24.552Z,67.34
2017-02-11T11:40:38.317Z,68.77
2017-02-11T11:41:52.071Z,69.22
2017-02-11T11:43:05.759Z,70.67
2017-02-11T11:44:18.231Z,70.87
2017-02-11T11:45:31.946Z,72
2017-02-11T11:46:45.639Z,71.61
2017-02-11T11:47:59.328Z,70.57
2017-02-11T11:49:13.009Z,70.29
2017-02-11T11:50:26.661Z,69.84
2017-02-11T11:51:39.782Z,68.22
2017-02-11T11:52:53.455Z,67.93
2017-02-11T11:54:06.555Z,68.12
2017-02-11T11:55:20.252Z,69.9
2017-02-11T11:56:33.400Z,68.83
2017-02-11T11:57:47.102Z,68.54
2017-02-11T11:59:00.782Z,65.75
2017-02-11T12:00:14.484Z,65.14
2017-02-11T12:01:28.180Z,64.75
2017-02-11T12:02:41.868Z,63.68
2017-02-11T12:03:55.570Z,63.62
2017-02-11T12:05:09.329Z,63.9
2017-02-11T12:06:22.993Z,65.63
2017-02-11T12:07:36.657Z,67.15
2017-02-11T12:08:50.327Z,67.41
2017-02-11T12:10:04.031Z,66.63
2017-02-11T12:11:17.707Z,66.53
2017-02-11T12:12:31.368Z,66.14
2017-02-11T12:13:44.443Z,64.91
2017-02-11T12:14:57.553Z,65.98
2017-02-11T12:16:10.631Z,65.98
2017-02-11T12:17:23.738Z,66.08
2017-02-11T12:18:37.489Z,65.11
2017-02-11T12:19:51.197Z,64.14
2017-02-11T12:21:04.902Z,64.46
2017-02-11T12:22:18.636Z,63.97
2017-02-11T12:23:31.724Z,65.23
2017-02-11T12:24:45.457Z,63.68
2017-02-11T12:25:59.175Z,63.29
2017-02-11T12:27:12.835Z,62.64
2017-02-11T12:28:26.563Z,63.32
2017-02-11T12:29:40.274Z,63.87
2017-02-11T12:30:54.002Z,63.29
2017-02-11T12:32:07.714Z,63.39
2017-02-11T12:33:20.223Z,63.49
2017-02-11T12:34:33.394Z,63.26
2017-02-11T12:35:47.093Z,62.32
2017-02-11T12:37:00.765Z,62.61
2017-02-11T12:38:13.847Z,63.13
2017-02-11T12:39:26.932Z,63.32
2017-02-11T12:40:40.628Z,63.97
2017-02-11T12:41:54.328Z,63.59
2017-02-11T12:43:07.426Z,64.26
2017-02-11T12:44:21.104Z,63
2017-02-11T12:45:34.782Z,62.64
2017-02-11T12:46:48.453Z,60.24
2017-02-11T12:48:02.109Z,59.52
2017-02-11T12:49:15.191Z,60.1
2017-02-11T12:50:28.891Z,57.86
2017-02-11T12:51:42.635Z,60.49
2017-02-11T12:52:56.362Z,59.23
2017-02-11T12:54:10.063Z,60.36
2017-02-11T12:55:23.134Z,58.94
2017-02-11T12:56:36.875Z,58.61
2017-02-11T12:57:50.586Z,59.95
2017-02-11T12:59:04.333Z,62.45
2017-02-11T13:00:18.056Z,62.9
2017-02-11T13:01:31.753Z,62.32
2017-02-11T13:02:45.521Z,62.03
2017-02-11T13:03:59.227Z,61.15
2017-02-11T13:05:12.941Z,61.15
2017-02-11T13:06:26.604Z,61.64
2017-02-11T13:07:39.741Z,62.13
2017-02-11T13:08:53.454Z,60.08
2017-02-11T13:10:07.170Z,59.53
2017-02-11T13:11:20.853Z,59.17
2017-02-11T13:12:34.539Z,59.17
2017-02-11T13:13:48.240Z,57.76
2017-02-11T13:15:01.300Z,56.52
2017-02-11T13:16:14.993Z,57.04
2017-02-11T13:17:28.697Z,56.89
2017-02-11T13:18:41.797Z,55.46
2017-02-11T13:19:54.871Z,52.87
2017-02-11T13:21:08.566Z,52.34
2017-02-11T13:22:21.753Z,54.17
2017-02-11T13:23:34.825Z,56.56
2017-02-11T13:24:48.494Z,56.6
2017-02-11T13:26:02.184Z,56.79
2017-02-11T13:27:15.272Z,56.5
2017-02-11T13:28:29.003Z,58.51
2017-02-11T13:29:42.155Z,59.17
2017-02-11T13:30:55.850Z,60.63
2017-02-11T13:32:09.526Z,60.14
2017-02-11T13:33:22.639Z,57.51
2017-02-11T13:34:35.716Z,55.62
2017-02-11T13:35:49.414Z,52.48
2017-02-11T13:37:03.070Z,53.07
2017-02-11T13:38:16.768Z,53.75
2017-02-11T13:39:30.468Z,52.19
2017-02-11T13:40:43.593Z,52.87
2017-02-11T13:41:57.296Z,51.34
2017-02-11T13:43:10.396Z,53.73
2017-02-11T13:44:24.113Z,51.65
2017-02-11T13:45:37.935Z,52.14
2017-02-11T13:46:51.654Z,52.12
2017-02-11T13:48:05.356Z,51.75
2017-02-11T13:49:19.043Z,52.63
2017-02-11T13:50:32.748Z,53.8
2017-02-11T13:51:45.821Z,54.87
2017-02-11T13:52:59.533Z,52.75
2017-02-11T13:54:13.242Z,53.07
2017-02-11T13:55:26.966Z,54.73
2017-02-11T13:56:40.064Z,54.9
2017-02-11T13:57:53.794Z,53.73
2017-02-11T13:59:07.525Z,50.04
2017-02-11T14:00:21.196Z,50.26
2017-02-11T14:01:34.864Z,49.32
2017-02-11T14:02:48.562Z,48.46
2017-02-11T14:04:02.208Z,49.32
2017-02-11T14:05:15.770Z,50.36
2017-02-11T14:06:29.553Z,49.19
2017-02-11T14:07:42.659Z,48.73
2017-02-11T14:08:55.773Z,47.28
2017-02-11T14:10:09.478Z,46.75
2017-02-11T14:11:22.560Z,48.04
2017-02-11T14:12:36.266Z,48.6
2017-02-11T14:13:49.980Z,49.87
2017-02-11T14:15:03.059Z,52.54
2017-02-11T14:16:16.703Z,54.11
2017-02-11T14:17:30.402Z,54.38
2017-02-11T14:18:43.548Z,56.04
2017-02-11T14:19:57.256Z,55.26
2017-02-11T14:21:10.401Z,55.36
2017-02-11T14:22:24.106Z,51.39
2017-02-11T14:23:37.874Z,50.26
2017-02-11T14:24:51.671Z,49.88
2017-02-11T14:26:04.749Z,49.49
2017-02-11T14:27:18.438Z,49.61
2017-02-11T14:28:32.106Z,51.07
2017-02-11T14:29:45.806Z,52.29
2017-02-11T14:30:59.506Z,52.68
2017-02-11T14:32:13.156Z,52.48
2017-02-11T14:33:26.859Z,52.68
2017-02-11T14:34:40.566Z,52.7
2017-02-11T14:35:54.254Z,51.92
2017-02-11T14:37:07.916Z,51.14
2017-02-11T14:38:21.611Z,51.53
2017-02-11T14:39:35.294Z,52.68
2017-02-11T14:40:49.008Z,53.05
2017-02-11T14:42:02.716Z,50.8
2017-02-11T14:43:15.826Z,49.49
2017-02-11T14:44:29.516Z,49.98
2017-02-11T14:45:42.601Z,50.63
2017-02-11T14:46:56.263Z,49.98
2017-02-11T14:48:10.073Z,46.48
2017-02-11T14:49:23.760Z,44.67
2017-02-11T14:50:37.454Z,45.06
2017-02-11T14:51:51.172Z,45.16
2017-02-11T14:53:04.268Z,43.93
2017-02-11T14:54:17.354Z,43.17
2017-02-11T14:55:31.062Z,43.09
2017-02-11T14:56:44.829Z,46.37
2017-02-11T14:57:58.558Z,48.07
2017-02-11T14:59:11.662Z,48.9
2017-02-11T15:00:25.329Z,48.58
2017-02-11T15:01:38.446Z,46.66
2017-02-11T15:02:52.140Z,45.55
2017-02-11T15:04:05.880Z,46.65
2017-02-11T15:05:18.993Z,48.77
2017-02-11T15:06:32.655Z,49.71
2017-02-11T15:07:46.342Z,51.41
2017-02-11T15:09:00.061Z,52.09
2017-02-11T15:10:13.760Z,51.61
2017-02-11T15:11:27.419Z,51.43
2017-02-11T15:12:41.147Z,52.48
2017-02-11T15:13:54.849Z,54.77
2017-02-11T15:15:07.998Z,52.7
2017-02-11T15:16:21.686Z,52.6
2017-02-11T15:17:35.364Z,52.73
2017-02-11T15:18:49.059Z,52.24
2017-02-11T15:20:02.758Z,52.14
2017-02-11T15:21:15.873Z,51.92
2017-02-11T15:22:28.953Z,51.26
2017-02-11T15:23:42.640Z,49.17
2017-02-11T15:24:55.762Z,49.37
2017-02-11T15:26:09.571Z,50.65
2017-02-11T15:27:23.250Z,52.48
2017-02-11T15:28:36.930Z,53.41
2017-02-11T15:29:50.037Z,52.8
2017-02-11T15:31:03.759Z,52.5
2017-02-11T15:32:17.463Z,52.4
2017-02-11T15:33:31.187Z,52.14
2017-02-11T15:34:44.918Z,52.53
2017-02-11T15:35:58.618Z,52.04
2017-02-11T15:37:12.304Z,52.6
2017-02-11T15:38:26.065Z,52.09
2017-02-11T15:39:39.760Z,51.26
2017-02-11T15:40:52.846Z,49.24
2017-02-11T15:42:06.553Z,49.29
2017-02-11T15:43:20.294Z,49.29
2017-02-11T15:44:33.995Z,49.1
2017-02-11T15:45:47.688Z,49.85
2017-02-11T15:47:01.416Z,50.73
2017-02-11T15:48:14.529Z,51.09
2017-02-11T15:49:28.232Z,49.37
2017-02-11T15:50:41.978Z,45.87
2017-02-11T15:51:55.661Z,44.09
2017-02-11T15:53:08.725Z,44.81
2017-02-11T15:54:21.839Z,45.4
2017-02-11T15:55:35.577Z,47.6
2017-02-11T15:56:49.267Z,48.41
2017-02-11T15:58:02.946Z,49.37